NKS462 KDTW-KLGA
Flight info
| Callsign | NKS462 |
|---|---|
| Flight time | 1h 12m |
| Altitude | 37000 |
| Route | PAVYL3 ESSBE SPYDY Q186 WEVEL ETG MIP4 |
| Aircraft | A321/M-SDE3FGHIRWY/LB1 |
Departure
| Time | 2026-05-05 20:24 |
|---|---|
| Airport | Detroit Metropolitan Wayne County Airport (KDTW) |
Arrival
| Time | 2026-05-05 21:37 |
|---|---|
| Airport | LaGuardia Airport (KLGA) |
| Time | Latitude | Longitude | Altitude | Speed | Heading |
|---|---|---|---|---|---|
| 2026-05-05 19:56 | 42.22451 | -83.35015 | 648 ft | 0 kts | 118° |
| 2026-05-05 20:10 | 42.22461 | -83.35041 | 647 ft | 4 kts | 118° |
| 2026-05-05 20:11 | 42.22471 | -83.35068 | 651 ft | 4 kts | 125° |
| 2026-05-05 20:11 | 42.22486 | -83.35082 | 648 ft | 4 kts | 200° |
| 2026-05-05 20:11 | 42.22509 | -83.35067 | 650 ft | 3 kts | 208° |
| 2026-05-05 20:11 | 42.22512 | -83.35064 | 651 ft | 0 kts | 208° |
| 2026-05-05 20:14 | 42.22512 | -83.35065 | 651 ft | 0 kts | 208° |
| 2026-05-05 20:15 | 42.22499 | -83.35074 | 650 ft | 4 kts | 208° |
| 2026-05-05 20:15 | 42.22463 | -83.35102 | 649 ft | 7 kts | 212° |
| 2026-05-05 20:15 | 42.22427 | -83.35151 | 647 ft | 8 kts | 233° |
| 2026-05-05 20:15 | 42.22391 | -83.35216 | 647 ft | 9 kts | 233° |
| 2026-05-05 20:16 | 42.22348 | -83.35285 | 648 ft | 10 kts | 221° |
| 2026-05-05 20:16 | 42.22287 | -83.35346 | 648 ft | 11 kts | 217° |
| 2026-05-05 20:16 | 42.22216 | -83.35403 | 648 ft | 13 kts | 209° |
| 2026-05-05 20:16 | 42.22137 | -83.35464 | 647 ft | 13 kts | 211° |
| 2026-05-05 20:17 | 42.22058 | -83.35522 | 647 ft | 11 kts | 206° |
| 2026-05-05 20:17 | 42.21991 | -83.35568 | 647 ft | 8 kts | 208° |
| 2026-05-05 20:17 | 42.21942 | -83.35604 | 647 ft | 9 kts | 209° |
| 2026-05-05 20:17 | 42.21884 | -83.35648 | 646 ft | 10 kts | 209° |
| 2026-05-05 20:18 | 42.21827 | -83.35622 | 646 ft | 10 kts | 116° |
| 2026-05-05 20:18 | 42.21820 | -83.35521 | 646 ft | 11 kts | 88° |
| 2026-05-05 20:18 | 42.21822 | -83.35411 | 647 ft | 12 kts | 88° |
| 2026-05-05 20:18 | 42.21824 | -83.35290 | 646 ft | 13 kts | 89° |
| 2026-05-05 20:19 | 42.21827 | -83.35162 | 647 ft | 14 kts | 89° |
| 2026-05-05 20:19 | 42.21829 | -83.35030 | 647 ft | 14 kts | 88° |
| 2026-05-05 20:19 | 42.21832 | -83.34895 | 648 ft | 12 kts | 89° |
| 2026-05-05 20:19 | 42.21833 | -83.34783 | 647 ft | 12 kts | 89° |
| 2026-05-05 20:20 | 42.21836 | -83.34665 | 648 ft | 12 kts | 89° |
| 2026-05-05 20:20 | 42.21837 | -83.34560 | 648 ft | 9 kts | 87° |
| 2026-05-05 20:20 | 42.21875 | -83.34491 | 648 ft | 10 kts | 44° |
| 2026-05-05 20:20 | 42.21949 | -83.34431 | 649 ft | 16 kts | 29° |
| 2026-05-05 20:21 | 42.22070 | -83.34342 | 647 ft | 22 kts | 28° |
| 2026-05-05 20:21 | 42.22206 | -83.34244 | 647 ft | 22 kts | 27° |
| 2026-05-05 20:21 | 42.22344 | -83.34143 | 647 ft | 23 kts | 28° |
| 2026-05-05 20:21 | 42.22485 | -83.34038 | 647 ft | 23 kts | 29° |
| 2026-05-05 20:22 | 42.22626 | -83.33932 | 647 ft | 22 kts | 28° |
| 2026-05-05 20:22 | 42.22747 | -83.33837 | 647 ft | 18 kts | 30° |
| 2026-05-05 20:22 | 42.22835 | -83.33779 | 647 ft | 12 kts | 27° |
| 2026-05-05 20:22 | 42.22844 | -83.33681 | 646 ft | 13 kts | 122° |
| 2026-05-05 20:23 | 42.22771 | -83.33659 | 645 ft | 7 kts | 207° |
| 2026-05-05 20:23 | 42.22747 | -83.33677 | 647 ft | 0 kts | 208° |
| 2026-05-05 20:24 | 42.22545 | -83.33826 | 647 ft | 70 kts | 208° |
| 2026-05-05 20:24 | 42.21935 | -83.34275 | 647 ft | 131 kts | 208° |
| 2026-05-05 20:24 | 42.21004 | -83.34950 | 805 ft | 165 kts | 208° |
| 2026-05-05 20:24 | 42.19958 | -83.35658 | 1443 ft | 168 kts | 209° |
| 2026-05-05 20:25 | 42.18871 | -83.36250 | 2120 ft | 173 kts | 195° |
| 2026-05-05 20:25 | 42.17639 | -83.36304 | 2641 ft | 183 kts | 181° |
| 2026-05-05 20:25 | 42.16351 | -83.36184 | 3180 ft | 188 kts | 181° |
| 2026-05-05 20:25 | 42.15033 | -83.35999 | 3748 ft | 193 kts | 180° |
| 2026-05-05 20:26 | 42.13641 | -83.35871 | 4031 ft | 211 kts | 185° |
| 2026-05-05 20:26 | 42.12097 | -83.35823 | 4225 ft | 234 kts | 186° |
| 2026-05-05 20:26 | 42.10381 | -83.35783 | 4564 ft | 256 kts | 185° |
| 2026-05-05 20:26 | 42.08578 | -83.35720 | 5316 ft | 261 kts | 185° |
| 2026-05-05 20:27 | 42.06759 | -83.35538 | 6221 ft | 267 kts | 175° |
| 2026-05-05 20:27 | 42.05009 | -83.34554 | 7054 ft | 283 kts | 154° |
| 2026-05-05 20:27 | 42.03594 | -83.32599 | 7810 ft | 304 kts | 128° |
| 2026-05-05 20:27 | 42.02838 | -83.29867 | 8555 ft | 321 kts | 107° |
| 2026-05-05 20:28 | 42.02409 | -83.26903 | 9292 ft | 326 kts | 106° |
| 2026-05-05 20:28 | 42.01990 | -83.23890 | 9985 ft | 330 kts | 105° |
| 2026-05-05 20:28 | 42.01622 | -83.20761 | 10320 ft | 351 kts | 99° |
| 2026-05-05 20:28 | 42.01580 | -83.17353 | 10460 ft | 378 kts | 89° |
| 2026-05-05 20:29 | 42.01959 | -83.13754 | 10582 ft | 400 kts | 81° |
| 2026-05-05 20:29 | 42.02525 | -83.10030 | 10983 ft | 411 kts | 76° |
| 2026-05-05 20:29 | 42.03415 | -83.06346 | 11558 ft | 416 kts | 71° |
| 2026-05-05 20:29 | 42.04360 | -83.02665 | 12188 ft | 419 kts | 72° |
| 2026-05-05 20:30 | 42.05306 | -82.98937 | 12839 ft | 423 kts | 72° |
| 2026-05-05 20:30 | 42.06257 | -82.95160 | 13488 ft | 426 kts | 72° |
| 2026-05-05 20:30 | 42.07208 | -82.91366 | 14074 ft | 429 kts | 72° |
| 2026-05-05 20:30 | 42.08166 | -82.87543 | 14618 ft | 433 kts | 72° |
| 2026-05-05 20:31 | 42.09126 | -82.83717 | 15179 ft | 436 kts | 72° |
| 2026-05-05 20:31 | 42.10107 | -82.79812 | 15743 ft | 439 kts | 72° |
| 2026-05-05 20:31 | 42.11086 | -82.75910 | 16303 ft | 443 kts | 72° |
| 2026-05-05 20:31 | 42.12075 | -82.71959 | 16857 ft | 447 kts | 72° |
| 2026-05-05 20:32 | 42.13073 | -82.67958 | 17401 ft | 451 kts | 72° |
| 2026-05-05 20:32 | 42.13938 | -82.63890 | 17949 ft | 454 kts | 80° |
| 2026-05-05 20:32 | 42.14351 | -82.59678 | 18441 ft | 454 kts | 90° |
| 2026-05-05 20:32 | 42.14362 | -82.55408 | 18917 ft | 456 kts | 94° |
| 2026-05-05 20:33 | 42.14333 | -82.51121 | 19395 ft | 460 kts | 94° |
| 2026-05-05 20:33 | 42.14301 | -82.46794 | 19868 ft | 463 kts | 95° |
| 2026-05-05 20:33 | 42.13993 | -82.42498 | 20312 ft | 462 kts | 104° |
| 2026-05-05 20:33 | 42.13454 | -82.38224 | 20735 ft | 465 kts | 104° |
| 2026-05-05 20:34 | 42.12910 | -82.33912 | 21187 ft | 467 kts | 104° |
| 2026-05-05 20:34 | 42.12365 | -82.29580 | 21630 ft | 471 kts | 103° |
| 2026-05-05 20:34 | 42.11817 | -82.25217 | 22062 ft | 474 kts | 103° |
| 2026-05-05 20:34 | 42.11266 | -82.20834 | 22462 ft | 477 kts | 103° |
| 2026-05-05 20:35 | 42.10708 | -82.16414 | 22863 ft | 480 kts | 103° |
| 2026-05-05 20:35 | 42.10145 | -82.11973 | 23276 ft | 483 kts | 103° |
| 2026-05-05 20:35 | 42.09579 | -82.07501 | 23622 ft | 486 kts | 103° |
| 2026-05-05 20:35 | 42.09007 | -82.02999 | 23949 ft | 489 kts | 103° |
| 2026-05-05 20:36 | 42.08427 | -81.98472 | 24260 ft | 492 kts | 103° |
| 2026-05-05 20:36 | 42.07840 | -81.93921 | 24575 ft | 495 kts | 103° |
| 2026-05-05 20:36 | 42.07124 | -81.89391 | 24877 ft | 494 kts | 111° |
| 2026-05-05 20:36 | 42.05913 | -81.85099 | 25184 ft | 489 kts | 121° |
| 2026-05-05 20:37 | 42.04230 | -81.81154 | 25495 ft | 484 kts | 131° |
| 2026-05-05 20:37 | 42.02883 | -81.78779 | 25687 ft | 480 kts | 138° |
| 2026-05-05 20:37 | 41.99704 | -81.74671 | 26101 ft | 470 kts | 150° |
| 2026-05-05 20:37 | 41.97010 | -81.72257 | 26401 ft | 462 kts | 159° |
| 2026-05-05 20:38 | 41.94194 | -81.70186 | 26709 ft | 463 kts | 160° |
| 2026-05-05 20:38 | 41.91359 | -81.68109 | 27016 ft | 465 kts | 160° |
| 2026-05-05 20:38 | 41.88510 | -81.66023 | 27311 ft | 467 kts | 160° |
| 2026-05-05 20:38 | 41.85645 | -81.63920 | 27640 ft | 469 kts | 160° |
| 2026-05-05 20:39 | 41.82779 | -81.61817 | 27963 ft | 471 kts | 160° |
| 2026-05-05 20:39 | 41.79898 | -81.59704 | 28277 ft | 473 kts | 160° |
| 2026-05-05 20:39 | 41.77001 | -81.57580 | 28559 ft | 476 kts | 160° |
| 2026-05-05 20:39 | 41.74086 | -81.55446 | 28905 ft | 476 kts | 160° |
| 2026-05-05 20:40 | 41.71181 | -81.53318 | 29323 ft | 476 kts | 160° |
| 2026-05-05 20:40 | 41.69258 | -81.51912 | 29607 ft | 475 kts | 160° |
| 2026-05-05 20:40 | 41.66358 | -81.49794 | 29978 ft | 474 kts | 159° |
| 2026-05-05 20:40 | 41.63468 | -81.47685 | 30403 ft | 472 kts | 159° |
| 2026-05-05 20:41 | 41.60685 | -81.45316 | 30751 ft | 481 kts | 150° |
| 2026-05-05 20:41 | 41.58189 | -81.42263 | 31093 ft | 492 kts | 139° |
| 2026-05-05 20:41 | 41.56108 | -81.38585 | 31398 ft | 502 kts | 127° |
| 2026-05-05 20:41 | 41.54547 | -81.34368 | 31705 ft | 512 kts | 115° |
| 2026-05-05 20:42 | 41.53588 | -81.29761 | 32030 ft | 519 kts | 103° |
| 2026-05-05 20:42 | 41.53122 | -81.24980 | 32356 ft | 521 kts | 99° |
| 2026-05-05 20:42 | 41.52688 | -81.20175 | 32710 ft | 520 kts | 99° |
| 2026-05-05 20:42 | 41.52246 | -81.15383 | 33025 ft | 521 kts | 99° |
| 2026-05-05 20:43 | 41.51795 | -81.10598 | 33320 ft | 521 kts | 99° |
| 2026-05-05 20:43 | 41.51341 | -81.05794 | 33602 ft | 522 kts | 99° |
| 2026-05-05 20:43 | 41.50889 | -81.00991 | 33860 ft | 522 kts | 99° |
| 2026-05-05 20:43 | 41.50439 | -80.96179 | 34112 ft | 523 kts | 99° |
| 2026-05-05 20:44 | 41.49987 | -80.91359 | 34375 ft | 524 kts | 99° |
| 2026-05-05 20:44 | 41.49531 | -80.86530 | 34576 ft | 525 kts | 98° |
| 2026-05-05 20:44 | 41.49070 | -80.81689 | 34778 ft | 527 kts | 98° |
| 2026-05-05 20:44 | 41.48608 | -80.76847 | 34978 ft | 528 kts | 98° |
| 2026-05-05 20:45 | 41.47671 | -80.67118 | 35454 ft | 529 kts | 98° |
| 2026-05-05 20:45 | 41.47198 | -80.62240 | 35654 ft | 530 kts | 98° |
| 2026-05-05 20:45 | 41.46724 | -80.57367 | 35887 ft | 531 kts | 98° |
| 2026-05-05 20:46 | 41.46249 | -80.52497 | 36094 ft | 531 kts | 98° |
| 2026-05-05 20:46 | 41.45768 | -80.47603 | 36323 ft | 531 kts | 97° |
| 2026-05-05 20:46 | 41.45283 | -80.42718 | 36562 ft | 532 kts | 97° |
| 2026-05-05 20:46 | 41.44795 | -80.37829 | 36766 ft | 533 kts | 97° |
| 2026-05-05 20:47 | 41.43814 | -80.28025 | 36862 ft | 534 kts | 97° |
| 2026-05-05 20:47 | 41.42825 | -80.18230 | 36864 ft | 534 kts | 97° |
| 2026-05-05 20:48 | 41.41832 | -80.08432 | 36866 ft | 533 kts | 97° |
| 2026-05-05 20:48 | 41.40882 | -79.98646 | 36866 ft | 533 kts | 97° |
| 2026-05-05 20:49 | 41.39960 | -79.88924 | 36876 ft | 533 kts | 97° |
| 2026-05-05 20:49 | 41.39008 | -79.79134 | 36872 ft | 533 kts | 97° |
| 2026-05-05 20:50 | 41.38036 | -79.69350 | 36881 ft | 533 kts | 97° |
| 2026-05-05 20:50 | 41.37044 | -79.59564 | 36871 ft | 533 kts | 97° |
| 2026-05-05 20:51 | 41.36056 | -79.49787 | 36861 ft | 532 kts | 97° |
| 2026-05-05 20:51 | 41.35068 | -79.40025 | 36859 ft | 532 kts | 97° |
| 2026-05-05 20:52 | 41.34069 | -79.30280 | 36863 ft | 531 kts | 97° |
| 2026-05-05 20:52 | 41.33064 | -79.20548 | 36868 ft | 531 kts | 97° |
| 2026-05-05 20:53 | 41.32046 | -79.10824 | 36866 ft | 530 kts | 97° |
| 2026-05-05 20:53 | 41.31015 | -79.01111 | 36868 ft | 530 kts | 97° |
| 2026-05-05 20:54 | 41.29985 | -78.91411 | 36875 ft | 529 kts | 97° |
| 2026-05-05 20:54 | 41.28959 | -78.81716 | 36875 ft | 529 kts | 97° |
| 2026-05-05 20:55 | 41.27917 | -78.72029 | 36855 ft | 529 kts | 97° |
| 2026-05-05 20:55 | 41.26856 | -78.62348 | 36856 ft | 529 kts | 97° |
| 2026-05-05 20:56 | 41.25792 | -78.52674 | 36857 ft | 528 kts | 97° |
| 2026-05-05 20:56 | 41.24723 | -78.43022 | 36860 ft | 528 kts | 97° |
| 2026-05-05 20:57 | 41.23658 | -78.33431 | 36875 ft | 528 kts | 97° |
| 2026-05-05 20:57 | 41.22574 | -78.23795 | 36868 ft | 527 kts | 98° |
| 2026-05-05 20:58 | 41.21474 | -78.14173 | 36865 ft | 528 kts | 98° |
| 2026-05-05 20:58 | 41.20333 | -78.04548 | 36854 ft | 528 kts | 98° |
| 2026-05-05 20:59 | 41.19122 | -77.94944 | 36843 ft | 528 kts | 99° |
| 2026-05-05 20:59 | 41.17900 | -77.85342 | 36855 ft | 527 kts | 99° |
| 2026-05-05 21:00 | 41.16686 | -77.75735 | 36833 ft | 527 kts | 99° |
| 2026-05-05 21:00 | 41.15473 | -77.66155 | 36829 ft | 527 kts | 99° |
| 2026-05-05 21:01 | 41.14251 | -77.56568 | 36827 ft | 527 kts | 99° |
| 2026-05-05 21:01 | 41.13031 | -77.46999 | 36825 ft | 525 kts | 99° |
| 2026-05-05 21:02 | 41.12419 | -77.42247 | 36706 ft | 519 kts | 99° |
| 2026-05-05 21:02 | 41.11804 | -77.37506 | 35900 ft | 524 kts | 99° |
| 2026-05-05 21:02 | 41.11182 | -77.32741 | 35220 ft | 526 kts | 99° |
| 2026-05-05 21:02 | 41.10553 | -77.27947 | 34435 ft | 529 kts | 100° |
| 2026-05-05 21:03 | 41.09916 | -77.23106 | 33488 ft | 536 kts | 100° |
| 2026-05-05 21:03 | 41.09278 | -77.18256 | 32858 ft | 532 kts | 100° |
| 2026-05-05 21:03 | 41.08642 | -77.13435 | 32052 ft | 532 kts | 101° |
| 2026-05-05 21:03 | 41.07998 | -77.08606 | 31257 ft | 531 kts | 101° |
| 2026-05-05 21:04 | 41.07363 | -77.03855 | 30489 ft | 530 kts | 101° |
| 2026-05-05 21:04 | 41.06723 | -76.99068 | 29698 ft | 528 kts | 102° |
| 2026-05-05 21:04 | 41.06086 | -76.94291 | 28493 ft | 520 kts | 102° |
| 2026-05-05 21:04 | 41.05462 | -76.89601 | 26960 ft | 513 kts | 102° |
| 2026-05-05 21:05 | 41.04855 | -76.85040 | 26183 ft | 491 kts | 102° |
| 2026-05-05 21:05 | 41.04281 | -76.80720 | 25728 ft | 464 kts | 102° |
| 2026-05-05 21:05 | 41.03726 | -76.76596 | 25095 ft | 445 kts | 102° |
| 2026-05-05 21:05 | 41.03182 | -76.72611 | 24511 ft | 438 kts | 102° |
| 2026-05-05 21:06 | 41.02630 | -76.68610 | 23919 ft | 442 kts | 102° |
| 2026-05-05 21:06 | 41.01897 | -76.64669 | 23354 ft | 439 kts | 110° |
| 2026-05-05 21:06 | 41.00966 | -76.60840 | 22768 ft | 437 kts | 110° |
| 2026-05-05 21:06 | 41.00046 | -76.57027 | 22248 ft | 433 kts | 110° |
| 2026-05-05 21:07 | 40.99137 | -76.53224 | 21723 ft | 431 kts | 110° |
| 2026-05-05 21:07 | 40.98238 | -76.49453 | 21204 ft | 429 kts | 110° |
| 2026-05-05 21:07 | 40.97342 | -76.45701 | 20708 ft | 427 kts | 110° |
| 2026-05-05 21:07 | 40.96446 | -76.41965 | 20245 ft | 424 kts | 110° |
| 2026-05-05 21:08 | 40.95553 | -76.38255 | 19770 ft | 422 kts | 110° |
| 2026-05-05 21:08 | 40.94666 | -76.34573 | 19313 ft | 419 kts | 110° |
| 2026-05-05 21:08 | 40.93780 | -76.30908 | 18852 ft | 417 kts | 110° |
| 2026-05-05 21:08 | 40.92894 | -76.27262 | 18392 ft | 414 kts | 110° |
| 2026-05-05 21:09 | 40.92015 | -76.23654 | 17895 ft | 412 kts | 111° |
| 2026-05-05 21:09 | 40.91139 | -76.20066 | 17525 ft | 412 kts | 111° |
| 2026-05-05 21:09 | 40.90241 | -76.16405 | 17317 ft | 422 kts | 111° |
| 2026-05-05 21:09 | 40.89333 | -76.12709 | 16937 ft | 423 kts | 111° |
| 2026-05-05 21:10 | 40.88439 | -76.09064 | 16569 ft | 422 kts | 111° |
| 2026-05-05 21:10 | 40.87537 | -76.05379 | 16198 ft | 421 kts | 111° |
| 2026-05-05 21:10 | 40.86640 | -76.01712 | 15817 ft | 420 kts | 111° |
| 2026-05-05 21:10 | 40.85742 | -75.98049 | 15444 ft | 418 kts | 111° |
| 2026-05-05 21:11 | 40.84845 | -75.94401 | 15066 ft | 417 kts | 111° |
| 2026-05-05 21:11 | 40.83949 | -75.90767 | 14641 ft | 415 kts | 111° |
| 2026-05-05 21:11 | 40.83055 | -75.87155 | 14274 ft | 413 kts | 111° |
| 2026-05-05 21:11 | 40.82166 | -75.83554 | 13906 ft | 412 kts | 111° |
| 2026-05-05 21:12 | 40.81281 | -75.79978 | 13528 ft | 410 kts | 111° |
| 2026-05-05 21:12 | 40.80393 | -75.76401 | 13142 ft | 409 kts | 111° |
| 2026-05-05 21:12 | 40.79508 | -75.72839 | 12838 ft | 407 kts | 111° |
| 2026-05-05 21:12 | 40.78628 | -75.69291 | 12749 ft | 407 kts | 111° |
| 2026-05-05 21:13 | 40.77749 | -75.65750 | 12639 ft | 406 kts | 111° |
| 2026-05-05 21:13 | 40.76868 | -75.62213 | 12502 ft | 405 kts | 111° |
| 2026-05-05 21:13 | 40.75988 | -75.58693 | 12380 ft | 404 kts | 111° |
| 2026-05-05 21:13 | 40.75110 | -75.55185 | 12225 ft | 402 kts | 111° |
| 2026-05-05 21:14 | 40.74230 | -75.51681 | 12101 ft | 401 kts | 111° |
| 2026-05-05 21:14 | 40.73357 | -75.48199 | 11963 ft | 400 kts | 111° |
| 2026-05-05 21:14 | 40.72491 | -75.44715 | 11830 ft | 399 kts | 110° |
| 2026-05-05 21:14 | 40.71706 | -75.41201 | 11688 ft | 399 kts | 108° |
| 2026-05-05 21:15 | 40.71000 | -75.37676 | 11555 ft | 396 kts | 107° |
| 2026-05-05 21:15 | 40.70335 | -75.34164 | 11427 ft | 395 kts | 106° |
| 2026-05-05 21:15 | 40.69680 | -75.30659 | 11288 ft | 393 kts | 106° |
| 2026-05-05 21:15 | 40.69017 | -75.27168 | 11153 ft | 392 kts | 107° |
| 2026-05-05 21:16 | 40.68340 | -75.23689 | 11021 ft | 392 kts | 107° |
| 2026-05-05 21:16 | 40.67652 | -75.20223 | 10896 ft | 391 kts | 107° |
| 2026-05-05 21:16 | 40.66811 | -75.16831 | 10755 ft | 387 kts | 117° |
| 2026-05-05 21:16 | 40.65543 | -75.13747 | 10633 ft | 380 kts | 128° |
| 2026-05-05 21:17 | 40.63937 | -75.11105 | 10484 ft | 361 kts | 138° |
| 2026-05-05 21:17 | 40.62257 | -75.08730 | 10375 ft | 346 kts | 137° |
| 2026-05-05 21:17 | 40.60655 | -75.06450 | 10261 ft | 333 kts | 138° |
| 2026-05-05 21:17 | 40.59109 | -75.04244 | 10128 ft | 322 kts | 138° |
| 2026-05-05 21:18 | 40.57636 | -75.02081 | 9911 ft | 317 kts | 133° |
| 2026-05-05 21:18 | 40.56495 | -74.99621 | 9838 ft | 317 kts | 119° |
| 2026-05-05 21:18 | 40.55671 | -74.96907 | 9770 ft | 320 kts | 115° |
| 2026-05-05 21:18 | 40.54858 | -74.94178 | 9678 ft | 321 kts | 116° |
| 2026-05-05 21:19 | 40.54039 | -74.91449 | 9534 ft | 320 kts | 116° |
| 2026-05-05 21:19 | 40.53223 | -74.88731 | 9410 ft | 319 kts | 116° |
| 2026-05-05 21:19 | 40.52410 | -74.86018 | 9280 ft | 319 kts | 116° |
| 2026-05-05 21:19 | 40.51598 | -74.83313 | 9155 ft | 317 kts | 116° |
| 2026-05-05 21:20 | 40.50787 | -74.80620 | 9027 ft | 316 kts | 116° |
| 2026-05-05 21:20 | 40.49984 | -74.77941 | 8900 ft | 314 kts | 116° |
| 2026-05-05 21:20 | 40.49185 | -74.75279 | 8772 ft | 313 kts | 116° |
| 2026-05-05 21:20 | 40.48387 | -74.72629 | 8644 ft | 311 kts | 116° |
| 2026-05-05 21:21 | 40.47591 | -74.69989 | 8529 ft | 310 kts | 116° |
| 2026-05-05 21:21 | 40.46802 | -74.67364 | 8382 ft | 308 kts | 116° |
| 2026-05-05 21:21 | 40.46011 | -74.64747 | 8277 ft | 308 kts | 116° |
| 2026-05-05 21:21 | 40.45226 | -74.62140 | 8162 ft | 307 kts | 116° |
| 2026-05-05 21:22 | 40.44439 | -74.59528 | 8036 ft | 307 kts | 116° |
| 2026-05-05 21:22 | 40.43686 | -74.56910 | 7914 ft | 308 kts | 110° |
| 2026-05-05 21:22 | 40.43347 | -74.54122 | 7792 ft | 312 kts | 94° |
| 2026-05-05 21:22 | 40.43578 | -74.51287 | 7665 ft | 315 kts | 77° |
| 2026-05-05 21:23 | 40.44275 | -74.48550 | 7553 ft | 316 kts | 71° |
| 2026-05-05 21:23 | 40.45017 | -74.45836 | 7427 ft | 315 kts | 71° |
| 2026-05-05 21:23 | 40.45753 | -74.43130 | 7304 ft | 315 kts | 72° |
| 2026-05-05 21:23 | 40.46482 | -74.40432 | 7172 ft | 313 kts | 72° |
| 2026-05-05 21:24 | 40.47208 | -74.37732 | 7046 ft | 313 kts | 72° |
| 2026-05-05 21:24 | 40.47931 | -74.35037 | 6918 ft | 313 kts | 72° |
| 2026-05-05 21:24 | 40.48651 | -74.32352 | 6802 ft | 312 kts | 72° |
| 2026-05-05 21:24 | 40.49372 | -74.29660 | 6674 ft | 312 kts | 72° |
| 2026-05-05 21:25 | 40.49861 | -74.27892 | 6583 ft | 312 kts | 68° |
| 2026-05-05 21:25 | 40.51067 | -74.25549 | 6475 ft | 312 kts | 43° |
| 2026-05-05 21:25 | 40.52690 | -74.23668 | 6343 ft | 311 kts | 38° |
| 2026-05-05 21:25 | 40.54967 | -74.21385 | 6191 ft | 309 kts | 27° |
| 2026-05-05 21:26 | 40.56858 | -74.20050 | 6067 ft | 308 kts | 24° |
| 2026-05-05 21:26 | 40.58157 | -74.19191 | 5980 ft | 308 kts | 24° |
| 2026-05-05 21:26 | 40.60052 | -74.17897 | 5853 ft | 308 kts | 31° |
| 2026-05-05 21:26 | 40.61657 | -74.16024 | 5727 ft | 309 kts | 46° |
| 2026-05-05 21:27 | 40.63118 | -74.13945 | 5590 ft | 308 kts | 48° |
| 2026-05-05 21:27 | 40.64467 | -74.11757 | 5425 ft | 308 kts | 52° |
| 2026-05-05 21:27 | 40.65780 | -74.09532 | 5248 ft | 307 kts | 52° |
| 2026-05-05 21:27 | 40.67062 | -74.07353 | 5062 ft | 306 kts | 52° |
| 2026-05-05 21:28 | 40.68470 | -74.05291 | 4907 ft | 303 kts | 40° |
| 2026-05-05 21:28 | 40.70176 | -74.03759 | 4737 ft | 300 kts | 19° |
| 2026-05-05 21:28 | 40.72162 | -74.03017 | 4561 ft | 296 kts | 8° |
| 2026-05-05 21:28 | 40.74179 | -74.02460 | 4392 ft | 296 kts | 7° |
| 2026-05-05 21:29 | 40.76156 | -74.01691 | 4213 ft | 298 kts | 20° |
| 2026-05-05 21:29 | 40.78043 | -74.00579 | 4038 ft | 300 kts | 22° |
| 2026-05-05 21:29 | 40.79925 | -73.99413 | 3814 ft | 297 kts | 22° |
| 2026-05-05 21:29 | 40.81784 | -73.98226 | 3744 ft | 297 kts | 22° |
| 2026-05-05 21:30 | 40.83647 | -73.97051 | 3663 ft | 296 kts | 22° |
| 2026-05-05 21:30 | 40.85512 | -73.95871 | 3598 ft | 299 kts | 22° |
| 2026-05-05 21:30 | 40.87382 | -73.94690 | 3561 ft | 294 kts | 22° |
| 2026-05-05 21:30 | 40.89199 | -73.93546 | 3507 ft | 286 kts | 22° |
| 2026-05-05 21:31 | 40.90898 | -73.92160 | 3462 ft | 290 kts | 39° |
| 2026-05-05 21:31 | 40.92401 | -73.90386 | 3425 ft | 289 kts | 42° |
| 2026-05-05 21:31 | 40.93822 | -73.88516 | 3367 ft | 285 kts | 52° |
| 2026-05-05 21:31 | 40.94702 | -73.86321 | 3357 ft | 261 kts | 75° |
| 2026-05-05 21:32 | 40.94934 | -73.83999 | 3281 ft | 250 kts | 97° |
| 2026-05-05 21:32 | 40.94712 | -73.81738 | 3140 ft | 247 kts | 106° |
| 2026-05-05 21:32 | 40.94294 | -73.79573 | 2982 ft | 239 kts | 123° |
| 2026-05-05 21:32 | 40.93324 | -73.77985 | 2859 ft | 208 kts | 152° |
| 2026-05-05 21:33 | 40.92106 | -73.77231 | 2719 ft | 184 kts | 176° |
| 2026-05-05 21:33 | 40.90890 | -73.77185 | 2571 ft | 170 kts | 196° |
| 2026-05-05 21:33 | 40.89809 | -73.77729 | 2484 ft | 165 kts | 214° |
| 2026-05-05 21:33 | 40.88847 | -73.78525 | 2331 ft | 163 kts | 215° |
| 2026-05-05 21:34 | 40.87916 | -73.79299 | 2131 ft | 151 kts | 214° |
| 2026-05-05 21:34 | 40.87046 | -73.80022 | 1935 ft | 146 kts | 214° |
| 2026-05-05 21:34 | 40.86195 | -73.80728 | 1746 ft | 143 kts | 213° |
| 2026-05-05 21:34 | 40.85355 | -73.81425 | 1570 ft | 142 kts | 213° |
| 2026-05-05 21:35 | 40.84521 | -73.82117 | 1375 ft | 143 kts | 212° |
| 2026-05-05 21:35 | 40.83684 | -73.82811 | 1188 ft | 140 kts | 213° |
| 2026-05-05 21:35 | 40.82860 | -73.83493 | 984 ft | 139 kts | 212° |
| 2026-05-05 21:35 | 40.82041 | -73.84173 | 803 ft | 139 kts | 212° |
| 2026-05-05 21:36 | 40.81222 | -73.84870 | 634 ft | 140 kts | 211° |
| 2026-05-05 21:36 | 40.80401 | -73.85527 | 461 ft | 137 kts | 208° |
| 2026-05-05 21:36 | 40.79591 | -73.86203 | 269 ft | 137 kts | 209° |
| 2026-05-05 21:36 | 40.78772 | -73.86885 | 119 ft | 139 kts | 211° |
| 2026-05-05 21:37 | 40.77983 | -73.87533 | 18 ft | 120 kts | 211° |
| 2026-05-05 21:37 | 40.77484 | -73.87946 | 24 ft | 47 kts | 212° |
| 2026-05-05 21:37 | 40.77342 | -73.88002 | 21 ft | 14 kts | 180° |
| 2026-05-05 21:37 | 40.77300 | -73.87962 | 20 ft | 8 kts | 57° |
| 2026-05-05 21:38 | 40.77349 | -73.87911 | 20 ft | 10 kts | 31° |
| 2026-05-05 21:38 | 40.77408 | -73.87860 | 20 ft | 11 kts | 33° |
| 2026-05-05 21:38 | 40.77473 | -73.87804 | 21 ft | 12 kts | 33° |
| 2026-05-05 21:38 | 40.77536 | -73.87753 | 21 ft | 10 kts | 31° |
| 2026-05-05 21:39 | 40.77580 | -73.87718 | 21 ft | 0 kts | 32° |
| 2026-05-05 21:39 | 40.77594 | -73.87706 | 21 ft | 6 kts | 32° |
| 2026-05-05 21:39 | 40.77620 | -73.87695 | 22 ft | 3 kts | 1° |
| 2026-05-05 21:39 | 40.77656 | -73.87738 | 24 ft | 11 kts | 304° |
| 2026-05-05 21:40 | 40.77706 | -73.87843 | 22 ft | 13 kts | 302° |
| 2026-05-05 21:40 | 40.77705 | -73.87910 | 21 ft | 8 kts | 228° |
| 2026-05-05 21:40 | 40.77658 | -73.87951 | 21 ft | 8 kts | 210° |
| 2026-05-05 21:40 | 40.77606 | -73.87994 | 22 ft | 10 kts | 213° |
| 2026-05-05 21:41 | 40.77542 | -73.88048 | 20 ft | 12 kts | 212° |
| 2026-05-05 21:41 | 40.77464 | -73.88111 | 19 ft | 14 kts | 212° |
| 2026-05-05 21:41 | 40.77383 | -73.88177 | 20 ft | 14 kts | 212° |
| 2026-05-05 21:41 | 40.77300 | -73.88247 | 21 ft | 12 kts | 213° |
| 2026-05-05 21:42 | 40.77282 | -73.88326 | 20 ft | 10 kts | 275° |
| 2026-05-05 21:42 | 40.77299 | -73.88383 | 19 ft | 5 kts | 335° |
| 2026-05-05 21:42 | 40.77322 | -73.88382 | 18 ft | 3 kts | 7° |
| 2026-05-05 21:42 | 40.77331 | -73.88381 | 19 ft | 1 kts | 7° |
| 2026-05-05 21:43 | 40.77334 | -73.88380 | 19 ft | 0 kts | 7° |